Entiat, WA

6:30 PM PDT on August 26, 2016 (GMT -0700)
Deer Creek | | Change Station

Elev 2457 ft 47.63 °N, 120.14 °W | Updated 14 minutes ago

Clear
Clear
86.0 °F
Feels Like 83 °F
N
2.6
Wind Variable Wind from North

Today
High -- | Low -- °F
--% Chance of Precip.
Yesterday
High -- | Low -- °F
Precip. -- in
Pressure 29.76 in
Visibility 10.0 miles
Clouds Clear
Heat Index 83 °F
Dew Point 46 °F
Humidity 25%
Rainfall Not available.
Snow Depth Not available.
6:12 AM 7:52 PM
Waning Crescent, 29% visible
METAR KEAT 270055Z AUTO 12007KT 10SM CLR 31/09 A2978 RMK AO2 SLP076 T03060094
Pressure 29.76 in
Visibility 10.0 miles
Clouds Clear
Heat Index 83 °F
Dew Point 46 °F
Humidity 25%
Rainfall Not available.
Snow Depth Not available.
6:12 AM 7:52 PM
Waning Crescent, 29% visible
METAR KEAT 270055Z AUTO 12007KT 10SM CLR 31/09 A2978 RMK AO2 SLP076 T03060094

10-Day Weather Forecast

Almanac

Astronomy

Aug. 26, 2016 Rise Set
Actual Time
Civil Twilight
Nautical Twilight
Astronomical Twilight
Moon
Length of Visible Light
Length of Day
Tomorrow will be .
, % of the Moon is Illuminated

Today's Extremes

State Highs State Lows

Community

WunderPhotos

Upload Photos

1,935,265 photos uploaded!

WunderBlog® & News

Nearby

Air Quality

  Air Quality AQ Index Pollutant
Not available.

Snow Depth

Station Depth Elevation

Earthquake Activity

City Distance Mag. Time & Date
Minimum magnitude displayed is 2.5.

Coastal Water Temperatures

Place Temperature

Stations

Nearby Weather Stations

Station Location Temp. Windchill Dew Point Humidity Wind Precip. Elev Updated Type
                   

Watches & Warnings

There are currently no watches in effect.